Kezdőlap
METAR-TAF:

METAR-TAF

Repülőterek :

Midland, Texas, Amerikai Egyesült Államok

földrajzi szélesség: 32-02-11N, földrajzi hosszúság: 102-06-03W, magasság: 854 m

Jelenlegi meteorológiai megfigyelések

A jelentés 24 perccel ezelõtt készült, 19:15 UTC
Délkeleti szél 14 kt széllökések: 21 kt
Hőmérséklet 34°C
Páratartalom 32%
Légköri nyomás 1013 hPa
Látótávolság: 16.1 km

METAR: KMDD 151915Z AUTO 14014G21KT 10SM 34/15 A2991 RMK AO2 T03350154

Idő: 14:39 (19:39 UTC)


TAF: hiányzik

Meteorológiai megfigyelések és előrejelzések több, mint 4000 repülőtéren (METAR és TAF jelentéseket).

A térképen piros és sárga pontok jelzik az elérhető meteorológiai állomásokat.

Mozgassa az egeret a pont fölött, hogy megjelenjen az állomás neve.

Azután kattintson az időjárási megfigyelések és előrejelzések megtekintéséhez.

A térkép megváltoztatása: kattintson a fekete keresztel jelölt zöld gombra ráközelítéshez, a vonallal jelölt zöld gombra távolításhoz, vagy a zöld nyilakra a szomszédos térképek eléréséhez.


METAR-TAF: